Time;durP1;ratioP1;P1;durP2;ratioP2;P2;SDS_P1;SDS_P2;PMS_P1;PMS_P2;Temp;Humidity;BMP_temperature;BMP_pressure;BME280_temperature;BME280_humidity;BME280_pressure;Samples;Min_cycle;Max_cycle;Signal;HPM_P1;HPM_P2
2021/09/17 00:07:07;;;;;;;6.65;1.40;;;21.00;63.20;;;;;;20747387;28;20551;-59
2021/09/17 00:17:08;;;;;;;3.28;1.10;;;21.10;63.30;;;;;;20746158;28;20464;-59
2021/09/17 00:27:09;;;;;;;4.90;1.50;;;21.10;63.30;;;;;;20745706;28;20037;-59
2021/09/17 00:37:10;;;;;;;4.93;1.00;;;21.10;63.30;;;;;;20745062;28;20026;-59
2021/09/17 00:47:10;;;;;;;3.77;1.30;;;21.00;63.30;;;;;;20743049;28;20405;-59
2021/09/17 00:57:12;;;;;;;4.85;1.35;;;21.00;63.30;;;;;;20744157;28;20471;-59
2021/09/17 01:07:12;;;;;;;2.70;0.75;;;21.00;63.30;;;;;;20743306;28;20033;-59
2021/09/17 01:17:13;;;;;;;8.13;1.47;;;21.00;63.40;;;;;;20742990;28;20033;-58
2021/09/17 01:27:15;;;;;;;2.40;1.02;;;21.00;63.40;;;;;;20741343;28;21092;-59
2021/09/17 01:37:15;;;;;;;4.13;1.10;;;20.90;63.30;;;;;;20741045;28;20030;-59
2021/09/17 01:47:16;;;;;;;3.03;1.00;;;21.00;63.40;;;;;;20740453;28;20500;-59
2021/09/17 01:57:16;;;;;;;10.20;1.13;;;20.90;63.40;;;;;;20739951;28;20054;-57
2021/09/17 02:07:17;;;;;;;2.40;1.33;;;20.90;63.40;;;;;;20738834;28;20065;-59
2021/09/17 02:17:17;;;;;;;1.70;1.05;;;20.90;63.30;;;;;;20738350;28;20037;-60
2021/09/17 02:27:18;;;;;;;3.27;1.00;;;20.90;63.40;;;;;;20737804;28;20141;-59
2021/09/17 02:37:19;;;;;;;3.47;1.02;;;20.90;63.50;;;;;;20738249;28;20514;-55
2021/09/17 02:47:21;;;;;;;2.65;1.00;;;20.90;63.40;;;;;;20737000;28;20022;-59
2021/09/17 02:57:22;;;;;;;3.38;1.25;;;20.90;63.50;;;;;;20736128;28;20021;-58
2021/09/17 03:07:22;;;;;;;3.35;1.00;;;20.90;63.40;;;;;;20735932;28;20541;-58
2021/09/17 03:17:23;;;;;;;1.98;1.10;;;20.90;63.50;;;;;;20735759;28;20053;-59
2021/09/17 03:27:23;;;;;;;3.72;1.00;;;20.90;63.50;;;;;;20736386;28;20061;-58
2021/09/17 03:37:24;;;;;;;1.77;0.98;;;20.90;63.50;;;;;;20735119;28;20029;-59
2021/09/17 03:47:24;;;;;;;4.85;1.30;;;20.90;63.50;;;;;;20734470;28;20022;-59
2021/09/17 03:57:28;;;;;;;4.28;1.27;;;20.80;63.50;;;;;;20766611;28;20029;-66
2021/09/17 04:07:28;;;;;;;3.00;1.48;;;20.80;63.50;;;;;;20757614;28;20046;-58
2021/09/17 04:17:29;;;;;;;4.75;1.20;;;20.80;63.60;;;;;;20639862;23;20057;-64
2021/09/17 04:27:30;;;;;;;2.67;1.20;;;20.80;63.60;;;;;;20587285;28;20038;-63
2021/09/17 04:37:30;;;;;;;1.80;1.00;;;20.80;63.40;;;;;;20588619;28;20050;-64
2021/09/17 04:47:31;;;;;;;2.13;1.10;;;20.80;63.50;;;;;;20584759;28;20493;-64
2021/09/17 04:57:32;;;;;;;1.98;0.90;;;20.80;63.50;;;;;;20575750;28;20022;-64
2021/09/17 05:07:33;;;;;;;4.95;1.52;;;20.80;63.50;;;;;;20562782;28;20055;-64
2021/09/17 05:17:34;;;;;;;16.80;2.35;;;20.80;63.50;;;;;;20585541;28;20599;-64
2021/09/17 05:27:35;;;;;;;11.20;3.05;;;20.80;63.50;;;;;;20591112;28;20019;-65
2021/09/17 05:37:35;;;;;;;20.13;3.30;;;20.80;63.90;;;;;;20601731;28;20121;-66
2021/09/17 05:47:37;;;;;;;19.02;4.43;;;20.80;63.80;;;;;;20594563;28;20035;-66
2021/09/17 05:57:38;;;;;;;19.85;4.53;;;20.80;63.70;;;;;;20598128;28;20031;-66
2021/09/17 06:07:43;;;;;;;13.65;5.32;;;20.80;63.90;;;;;;20596531;28;20081;-64
2021/09/17 06:17:45;;;;;;;13.15;4.43;;;20.70;64.10;;;;;;20591058;28;20034;-64
2021/09/17 06:27:45;;;;;;;12.43;4.68;;;20.80;64.10;;;;;;20589991;28;20039;-64
2021/09/17 06:37:48;;;;;;;8.02;4.00;;;20.70;64.00;;;;;;20590560;28;20045;-64
2021/09/17 06:47:53;;;;;;;15.60;3.22;;;20.70;64.00;;;;;;20593506;28;20078;-64
2021/09/17 06:57:56;;;;;;;16.85;4.55;;;20.80;64.10;;;;;;20598827;28;20485;-63
2021/09/17 07:08:04;;;;;;;17.17;4.63;;;20.80;64.40;;;;;;20587735;28;20042;-62
2021/09/17 07:18:05;;;;;;;15.00;3.63;;;20.90;64.20;;;;;;20583922;28;20030;-62
2021/09/17 07:28:06;;;;;;;14.07;3.90;;;20.90;64.20;;;;;;20592472;28;20031;-60
2021/09/17 07:38:06;;;;;;;10.13;3.88;;;21.00;64.10;;;;;;20605114;28;20038;-61
2021/09/17 07:48:07;;;;;;;10.45;4.28;;;21.00;64.00;;;;;;20555746;28;20031;-61
2021/09/17 07:58:08;;;;;;;13.45;4.32;;;21.00;63.80;;;;;;20527931;28;20055;-60
2021/09/17 08:08:08;;;;;;;12.80;3.08;;;21.00;63.60;;;;;;20527282;28;20099;-61
2021/09/17 08:18:09;;;;;;;7.05;2.70;;;21.00;63.50;;;;;;20533683;28;20030;-62
2021/09/17 08:28:09;;;;;;;5.33;3.10;;;21.00;63.40;;;;;;20583603;28;20097;-62
2021/09/17 08:38:10;;;;;;;6.13;2.58;;;21.00;63.50;;;;;;20598620;28;20458;-61
2021/09/17 08:48:12;;;;;;;10.35;2.60;;;21.10;63.40;;;;;;20603774;28;20054;-61
2021/09/17 08:58:12;;;;;;;5.25;2.17;;;21.10;63.60;;;;;;20609456;28;20062;-62
2021/09/17 09:08:13;;;;;;;11.30;2.50;;;21.10;63.00;;;;;;20608101;28;20035;-62
2021/09/17 09:18:14;;;;;;;7.90;3.13;;;21.10;63.20;;;;;;20614761;28;20571;-61
2021/09/17 09:28:17;;;;;;;9.38;2.28;;;21.20;63.10;;;;;;20612491;28;20031;-61
2021/09/17 09:38:32;;;;;;;7.95;2.80;;;21.20;62.90;;;;;;20598978;28;20034;-62
2021/09/17 09:48:32;;;;;;;5.13;1.60;;;21.30;62.30;;;;;;20598401;28;20038;-62
2021/09/17 09:58:33;;;;;;;8.80;2.45;;;21.40;62.10;;;;;;20582885;28;20034;-60
2021/09/17 10:08:34;;;;;;;11.23;2.20;;;21.40;61.60;;;;;;20574900;28;20035;-61
2021/09/17 10:18:37;;;;;;;6.10;1.92;;;21.60;60.80;;;;;;20571140;28;20034;-60
2021/09/17 10:29:05;;;;;;;3.22;1.40;;;21.50;61.50;;;;;;20575587;28;20507;-61
2021/09/17 10:39:13;;;;;;;5.95;1.55;;;21.50;61.20;;;;;;20567906;28;20483;-59
2021/09/17 10:49:14;;;;;;;4.55;1.42;;;21.60;61.60;;;;;;20589094;28;20045;-59
2021/09/17 10:59:23;;;;;;;7.15;1.88;;;21.50;61.30;;;;;;20592156;28;20043;-62
2021/09/17 11:09:40;;;;;;;3.83;1.27;;;21.60;61.10;;;;;;20600786;28;20701;-62
2021/09/17 11:19:41;;;;;;;5.97;2.13;;;21.60;61.10;;;;;;20591598;28;20030;-60
2021/09/17 11:29:42;;;;;;;5.05;1.20;;;21.60;59.90;;;;;;20586728;28;20117;-60
2021/09/17 11:39:42;;;;;;;6.10;1.27;;;21.70;60.60;;;;;;20587870;28;20031;-61
2021/09/17 11:49:44;;;;;;;1.83;0.93;;;21.60;60.70;;;;;;20598374;28;20445;-62
2021/09/17 11:59:46;;;;;;;3.13;1.25;;;21.60;60.30;;;;;;20566569;28;20069;-61
2021/09/17 12:09:46;;;;;;;3.15;1.20;;;21.70;60.00;;;;;;20598628;28;20438;-60
2021/09/17 12:20:07;;;;;;;3.03;0.82;;;21.70;60.20;;;;;;20618729;28;20441;-60
2021/09/17 12:30:16;;;;;;;3.80;1.17;;;21.70;60.20;;;;;;20612644;28;20083;-58
2021/09/17 12:40:20;;;;;;;3.65;1.08;;;21.70;59.90;;;;;;20613543;28;20085;-60
2021/09/17 12:50:32;;;;;;;1.35;0.63;;;21.70;59.50;;;;;;20567889;28;20393;-60
2021/09/17 13:00:44;;;;;;;2.33;0.90;;;21.70;59.00;;;;;;20529661;23;20417;-59
2021/09/17 13:10:46;;;;;;;4.80;0.95;;;21.70;59.70;;;;;;20503199;28;20046;-59
2021/09/17 13:20:47;;;;;;;2.95;0.77;;;21.60;59.40;;;;;;20505567;28;20039;-60
2021/09/17 13:30:48;;;;;;;1.70;0.73;;;21.60;59.50;;;;;;20503295;28;20031;-59
2021/09/17 13:40:51;;;;;;;2.00;0.90;;;21.60;59.00;;;;;;20500864;28;20605;-59
2021/09/17 13:50:52;;;;;;;1.20;0.57;;;21.60;59.30;;;;;;20500067;28;20514;-59
2021/09/17 14:00:52;;;;;;;0.98;0.60;;;21.50;59.30;;;;;;20484580;28;20634;-59
2021/09/17 14:10:53;;;;;;;1.35;0.90;;;21.50;59.10;;;;;;20488923;28;20047;-59
2021/09/17 14:20:53;;;;;;;8.88;1.33;;;21.50;59.10;;;;;;20509849;28;20031;-58
2021/09/17 14:30:54;;;;;;;14.68;2.72;;;21.60;58.10;;;;;;20497785;28;20086;-57
2021/09/17 14:40:54;;;;;;;11.35;1.67;;;21.60;58.50;;;;;;20498106;28;20031;-58
2021/09/17 14:50:55;;;;;;;18.05;2.55;;;21.60;58.60;;;;;;20495260;28;20661;-59
2021/09/17 15:00:56;;;;;;;14.80;2.47;;;21.60;58.50;;;;;;20500211;28;20035;-59
2021/09/17 15:10:57;;;;;;;9.27;1.85;;;21.60;58.50;;;;;;20489511;28;20039;-59
2021/09/17 15:20:57;;;;;;;8.95;2.03;;;21.60;57.40;;;;;;20479085;28;20051;-59
2021/09/17 15:31:02;;;;;;;10.05;1.48;;;21.60;58.20;;;;;;20495188;28;20035;-58
2021/09/17 15:41:03;;;;;;;14.77;2.53;;;21.60;58.30;;;;;;20482614;28;20114;-59
2021/09/17 15:51:04;;;;;;;12.75;3.15;;;21.60;58.10;;;;;;20503532;28;20063;-56
2021/09/17 16:01:06;;;;;;;25.23;2.53;;;21.60;57.90;;;;;;20508078;28;20039;-57
2021/09/17 16:11:07;;;;;;;14.60;2.92;;;21.60;58.20;;;;;;20507198;28;20118;-58
2021/09/17 16:21:07;;;;;;;14.00;3.10;;;21.50;58.10;;;;;;20506573;28;20115;-57
2021/09/17 16:31:09;;;;;;;24.52;3.58;;;21.60;58.40;;;;;;20485282;28;20389;-58
2021/09/17 16:41:09;;;;;;;20.83;4.20;;;21.60;58.10;;;;;;20507693;28;20065;-58
2021/09/17 16:51:10;;;;;;;30.17;4.65;;;21.60;58.20;;;;;;20509353;28;20063;-57
2021/09/17 17:01:10;;;;;;;12.25;2.53;;;21.60;58.10;;;;;;20503050;28;20067;-58
2021/09/17 17:11:11;;;;;;;13.60;2.97;;;21.50;58.40;;;;;;20509119;28;20481;-58
2021/09/17 17:21:11;;;;;;;13.57;2.88;;;21.50;58.30;;;;;;20507802;28;21035;-56
2021/09/17 17:31:13;;;;;;;11.40;2.08;;;21.40;58.30;;;;;;20500676;28;20027;-54
2021/09/17 17:41:13;;;;;;;8.00;2.03;;;21.40;58.30;;;;;;20501240;28;20035;-57
2021/09/17 17:51:14;;;;;;;8.23;2.78;;;21.40;58.10;;;;;;20501052;28;20039;-55
2021/09/17 18:01:14;;;;;;;8.63;1.98;;;21.40;58.00;;;;;;20520837;28;20039;-58
2021/09/17 18:11:15;;;;;;;4.78;1.33;;;21.40;57.90;;;;;;20475555;28;20050;-58
2021/09/17 18:21:15;;;;;;;5.05;1.73;;;21.30;57.80;;;;;;20469797;28;20066;-56
2021/09/17 18:31:16;;;;;;;5.60;1.55;;;21.30;57.90;;;;;;20479872;28;20516;-57
2021/09/17 18:41:18;;;;;;;12.35;3.00;;;21.30;57.60;;;;;;20487338;28;20051;-55
2021/09/17 18:51:20;;;;;;;9.13;2.17;;;21.40;56.50;;;;;;20446831;28;20462;-57
2021/09/17 19:01:20;;;;;;;9.43;2.20;;;21.40;57.20;;;;;;20446725;28;20058;-54
2021/09/17 19:11:21;;;;;;;13.48;2.90;;;21.50;56.60;;;;;;20491992;28;20074;-57
2021/09/17 19:21:21;;;;;;;24.65;3.92;;;21.50;56.50;;;;;;20488189;28;21292;-58
2021/09/17 19:31:22;;;;;;;14.15;4.07;;;21.50;57.10;;;;;;20469267;28;20073;-55
2021/09/17 19:41:23;;;;;;;16.15;3.80;;;21.60;57.00;;;;;;20469908;28;20047;-55
2021/09/17 19:51:24;;;;;;;12.60;3.10;;;21.50;57.00;;;;;;20506310;28;20039;-58
2021/09/17 20:01:24;;;;;;;11.43;2.72;;;21.50;56.60;;;;;;20504943;28;20035;-55
2021/09/17 20:11:27;;;;;;;13.77;2.03;;;21.50;56.40;;;;;;20506962;28;20034;-57
2021/09/17 20:21:27;;;;;;;8.15;1.90;;;21.50;56.00;;;;;;20474917;28;20457;-58
2021/09/17 20:31:28;;;;;;;13.43;2.60;;;21.50;55.90;;;;;;20507597;28;20031;-57
2021/09/17 20:41:29;;;;;;;5.88;2.08;;;21.50;55.70;;;;;;20506989;28;20640;-57
2021/09/17 20:51:31;;;;;;;8.40;1.73;;;21.50;55.80;;;;;;20499146;28;20039;-56
2021/09/17 21:01:32;;;;;;;7.50;1.70;;;21.30;57.40;;;;;;20476395;28;20054;-55
2021/09/17 21:11:32;;;;;;;10.43;2.17;;;21.20;57.90;;;;;;20465395;28;20491;-56
2021/09/17 21:21:33;;;;;;;12.82;2.55;;;21.10;58.80;;;;;;20453738;28;20106;-55
2021/09/17 21:31:34;;;;;;;11.15;2.55;;;21.00;59.30;;;;;;20454362;28;20403;-55
2021/09/17 21:41:36;;;;;;;13.90;2.53;;;20.90;59.70;;;;;;20448195;28;20032;-53
2021/09/17 21:51:37;;;;;;;10.18;2.42;;;20.90;60.00;;;;;;20446131;28;20039;-52
2021/09/17 22:01:38;;;;;;;7.75;2.50;;;20.80;60.30;;;;;;20446266;28;20040;-57
2021/09/17 22:11:39;;;;;;;9.20;2.17;;;20.80;60.60;;;;;;20494783;28;20430;-57
2021/09/17 22:21:40;;;;;;;7.90;2.67;;;20.80;60.80;;;;;;20494596;28;20111;-57
2021/09/17 22:31:40;;;;;;;9.07;1.95;;;20.80;60.90;;;;;;20494480;28;20114;-56
2021/09/17 22:41:41;;;;;;;6.50;2.05;;;20.80;61.10;;;;;;20497363;28;20043;-54
2021/09/17 22:51:42;;;;;;;7.38;2.15;;;20.80;61.00;;;;;;20495966;28;20073;-57
2021/09/17 23:01:42;;;;;;;7.53;2.15;;;20.80;61.20;;;;;;20511379;28;20038;-55
2021/09/17 23:11:43;;;;;;;5.28;2.22;;;20.70;61.00;;;;;;20511373;28;20039;-54
2021/09/17 23:21:43;;;;;;;8.15;1.60;;;20.70;61.00;;;;;;20509581;28;20636;-57
2021/09/17 23:31:44;;;;;;;3.75;2.28;;;20.70;61.10;;;;;;20510812;28;20114;-56
2021/09/17 23:41:44;;;;;;;4.65;1.80;;;20.70;61.30;;;;;;20509925;28;20035;-54
2021/09/17 23:51:45;;;;;;;4.30;1.85;;;20.70;61.20;;;;;;20509068;28;20439;-50
